Auburn Junction, Indiana
Current Conditions -  °F | °C
As of 10:15 PM on Sunday 21 Dec 2014 (Local Time) from KGWB Reporting Station
Haze Haze  
Wind Chill: 25°   Ceiling: Unl
Heat Index: 30°   Visibility: 5mi
Dew Point: 25°   Wind: 5mph
Humidity: 80%   Direction: 110°ESE
Pressure: 30.15"   Gusts: NA
Location:  41.3419°N, 85.0357°W
Report Text: KGWB 220315Z AUTO 11004KT 5SM HZ CLR M01/M04 A3015 RMK AO2
Loading
Personal Weather Stations






























Interactive Weather Map New forecast layout! Learn more

10-Day Weather Forecast

Advertisements
Track Severe Weather on mobile